This is the latest recevied weather packets stored in our database for station/object IW8ELN-10. If no packets are shown the sender has not sent any weather packets the latest 10 day(s).
| Time | Temp. | Humidity | Pressure | Rain* | Wind** | Luminosity | Snow |
|---|---|---|---|---|---|---|---|
| 1777920180 | 15° C | 64% | 992 hPa | - | - | - | - |
| 1777916580 | 15° C | 58% | 996.2 hPa | - | - | - | - |
| 1777912980 | 15.56° C | 58% | 991.3 hPa | - | - | - | - |
| 1777909380 | 16.67° C | 55% | 991.2 hPa | - | - | - | - |
| 1777905787 | 17.22° C | 55% | 991.1 hPa | - | - | - | - |
| 1777902180 | 16.67° C | 60% | 991.5 hPa | - | - | - | - |
| 1777898580 | 9.44° C | 61% | 984.2 hPa | - | - | - | - |
| 1777894979 | 15.56° C | 64% | 992.5 hPa | - | - | - | - |
| 1777891379 | 15° C | 67% | 993.3 hPa | - | - | - | - |
| 1777887786 | 15° C | 67% | 993.9 hPa | - | - | - | - |
| 1777884179 | 13.89° C | 67% | 994 hPa | - | - | - | - |
| 1777880586 | 13.33° C | 66% | 994.1 hPa | - | - | - | - |
| 1777873379 | 12.22° C | 60% | 994.1 hPa | - | - | - | - |
| 1777869786 | 12.22° C | 58% | 993.8 hPa | - | - | - | - |
| 1777862578 | 12.22° C | 59% | 993.7 hPa | - | - | - | - |
| 1777858985 | 12.78° C | 59% | 993.7 hPa | - | - | - | - |
| 1777855378 | 12.78° C | 60% | 994.7 hPa | - | - | - | - |
| 1777851785 | 12.78° C | 61% | 993.6 hPa | - | - | - | - |
| 1777848181 | 13.33° C | 61% | 993.8 hPa | - | - | - | - |
| 1777837382 | 14.44° C | 60% | 992.9 hPa | - | - | - | - |
| 1777833778 | 15° C | 59% | 992.3 hPa | - | - | - | - |
| 1777830178 | 15.56° C | 54% | 991.6 hPa | - | - | - | - |
| 1777826578 | 16.67° C | 51% | 991.4 hPa | - | - | - | - |
| 1777819384 | 17.22° C | 45% | 991 hPa | - | - | - | - |
| 1777815777 | 15.56° C | 47% | 991.4 hPa | - | - | - | - |
* Rain since midnight (hover to see other rain measurements)
** Current wind speed in m/s (hover to see current wind gust speed)